Time;durP1;ratioP1;P1;durP2;ratioP2;P2;SDS_P1;SDS_P2;PMS_P1;PMS_P2;Temp;Humidity;BMP_temperature;BMP_pressure;BME280_temperature;BME280_humidity;BME280_pressure;Samples;Min_cycle;Max_cycle;Signal;HPM_P1;HPM_P2
2021/10/27 00:00:55;;;;;;;38.00;9.45;;;;;;;10.38;100.00;100890.72;6164272;23;20352;-79
2021/10/27 00:03:20;;;;;;;31.77;9.45;;;;;;;10.38;100.00;100882.63;6164517;23;20064;-80
2021/10/27 00:05:46;;;;;;;30.13;9.65;;;;;;;10.27;100.00;100861.69;6138382;23;20005;-78
2021/10/27 00:08:12;;;;;;;33.85;9.75;;;;;;;10.33;100.00;100869.78;6165795;23;20024;-79
2021/10/27 00:10:37;;;;;;;29.30;8.93;;;;;;;10.35;100.00;100865.03;6171761;23;20009;-78
2021/10/27 00:13:05;;;;;;;30.63;7.90;;;;;;;10.39;100.00;100864.63;6187143;23;20008;-79
2021/10/27 00:15:31;;;;;;;28.33;7.53;;;;;;;10.40;100.00;100859.09;6137178;23;20009;-79
2021/10/27 00:17:56;;;;;;;27.00;7.20;;;;;;;10.21;100.00;100824.78;6161821;23;20008;-79
2021/10/27 00:20:21;;;;;;;27.73;6.63;;;;;;;10.44;100.00;100862.19;6193305;23;20005;-78
2021/10/27 00:22:47;;;;;;;24.73;6.03;;;;;;;10.41;100.00;100854.53;6164564;23;20025;-79
2021/10/27 00:25:12;;;;;;;23.13;5.45;;;;;;;10.37;100.00;100842.50;6188035;23;20440;-80
2021/10/27 00:27:38;;;;;;;17.42;5.68;;;;;;;10.37;100.00;100839.81;6192340;23;20061;-78
2021/10/27 00:30:04;;;;;;;23.55;5.88;;;;;;;10.50;100.00;100850.66;6141886;23;20104;-79
2021/10/27 00:32:30;;;;;;;22.05;5.05;;;;;;;10.52;100.00;100852.09;6166894;23;20024;-79
2021/10/27 00:34:55;;;;;;;21.35;5.10;;;;;;;10.52;100.00;100849.41;6190458;23;20009;-78
2021/10/27 00:37:20;;;;;;;24.10;5.07;;;;;;;10.49;100.00;100836.34;6163832;23;20036;-78
2021/10/27 00:39:47;;;;;;;21.27;4.68;;;;;;;10.52;100.00;100840.50;6187967;23;20100;-78
2021/10/27 00:42:14;;;;;;;22.83;5.15;;;;;;;10.46;100.00;100836.78;6164233;23;20070;-78
2021/10/27 00:44:41;;;;;;;20.33;5.03;;;;;;;10.48;100.00;100839.25;6164891;23;20476;-78
2021/10/27 00:47:09;;;;;;;23.60;5.43;;;;;;;10.47;100.00;100827.66;6164636;23;20100;-78
2021/10/27 00:49:37;;;;;;;20.75;4.93;;;;;;;10.52;100.00;100844.03;6188971;23;20009;-78
2021/10/27 00:52:06;;;;;;;17.90;4.72;;;;;;;10.51;100.00;100845.06;6167406;23;20013;-79
2021/10/27 00:54:33;;;;;;;26.90;5.07;;;;;;;10.41;100.00;100833.84;6166883;23;20070;-78
2021/10/27 00:57:01;;;;;;;23.27;5.40;;;;;;;10.37;100.00;100820.97;6193788;23;20001;-79
2021/10/27 00:59:28;;;;;;;26.23;5.88;;;;;;;10.33;100.00;100818.69;6194158;23;20388;-79
2021/10/27 01:01:55;;;;;;;15.60;4.47;;;;;;;10.41;100.00;100825.75;6194903;23;20076;-79
2021/10/27 01:04:22;;;;;;;20.85;4.25;;;;;;;10.32;100.00;100822.38;6196286;23;20060;-79
2021/10/27 01:06:48;;;;;;;19.65;4.63;;;;;;;10.29;100.00;100819.25;6152203;23;20009;-79
2021/10/27 01:09:14;;;;;;;15.65;3.70;;;;;;;10.20;100.00;100790.81;6197316;23;20020;-79
2021/10/27 01:11:40;;;;;;;16.73;4.20;;;;;;;10.22;100.00;100796.84;6196024;23;20006;-79
2021/10/27 01:14:07;;;;;;;18.75;4.00;;;;;;;10.14;100.00;100789.78;6173041;23;20023;-79
2021/10/27 01:16:32;;;;;;;17.60;3.72;;;;;;;10.13;100.00;100782.72;6173918;23;20001;-79
2021/10/27 01:18:58;;;;;;;17.35;3.55;;;;;;;10.16;100.00;100782.31;6171478;23;20020;-79
2021/10/27 01:21:24;;;;;;;18.98;3.65;;;;;;;10.13;100.00;100771.94;6155228;23;20005;-79
2021/10/27 01:23:50;;;;;;;19.08;3.17;;;;;;;10.17;100.00;100775.13;6172809;23;20110;-79
2021/10/27 01:26:16;;;;;;;19.17;3.17;;;;;;;9.97;100.00;100734.66;6148527;23;20009;-79
2021/10/27 01:28:42;;;;;;;15.82;2.55;;;;;;;10.04;100.00;100743.59;6147793;23;20019;-79
2021/10/27 01:31:10;;;;;;;24.27;3.03;;;;;;;10.16;100.00;100760.81;6169158;23;20058;-79
2021/10/27 01:33:36;;;;;;;19.73;2.67;;;;;;;10.10;100.00;100737.44;6197174;23;20008;-78
2021/10/27 01:36:03;;;;;;;20.52;2.97;;;;;;;10.21;100.00;100753.00;6165828;23;20047;-79
2021/10/27 01:38:29;;;;;;;15.20;2.28;;;;;;;10.22;100.00;100743.88;6162630;23;20028;-78
2021/10/27 01:40:55;;;;;;;13.52;1.95;;;;;;;10.12;100.00;100729.97;6162241;23;20005;-79
2021/10/27 01:43:20;;;;;;;13.45;2.20;;;;;;;9.99;100.00;100708.38;6163485;23;20013;-79
2021/10/27 01:45:46;;;;;;;6.53;1.60;;;;;;;10.19;100.00;100738.91;6162899;23;20352;-79
2021/10/27 01:48:11;;;;;;;9.48;1.80;;;;;;;10.19;100.00;100741.59;6162160;23;20032;-79
2021/10/27 01:50:37;;;;;;;14.23;1.85;;;;;;;10.04;100.00;100735.53;6162239;23;20040;-79
2021/10/27 01:53:03;;;;;;;9.93;1.50;;;;;;;9.92;100.00;100726.34;6190450;23;20005;-79
2021/10/27 01:55:28;;;;;;;13.07;1.55;;;;;;;9.81;100.00;100712.41;6189981;23;20001;-79
2021/10/27 01:57:54;;;;;;;8.68;1.70;;;;;;;9.87;100.00;100719.69;6139269;23;20098;-79
2021/10/27 02:00:20;;;;;;;9.20;1.67;;;;;;;9.78;100.00;100703.91;6162630;23;19997;-78
2021/10/27 02:02:46;;;;;;;10.00;2.08;;;;;;;9.82;100.00;100708.69;6163053;23;20091;-79
2021/10/27 02:05:13;;;;;;;9.48;1.65;;;;;;;9.84;100.00;100693.22;6187642;23;20001;-79
2021/10/27 02:07:39;;;;;;;10.35;2.05;;;;;;;9.83;100.00;100690.72;6188110;23;20004;-79
2021/10/27 02:10:07;;;;;;;9.55;1.98;;;;;;;9.70;100.00;100667.28;6161406;23;20086;-79
2021/10/27 02:12:35;;;;;;;11.13;2.10;;;;;;;9.89;100.00;100690.75;6187917;23;20045;-79
2021/10/27 02:15:01;;;;;;;11.35;2.00;;;;;;;9.89;100.00;100685.38;6188788;23;20001;-79
2021/10/27 02:17:27;;;;;;;12.70;2.30;;;;;;;9.95;100.00;100674.88;6187816;23;20008;-79
2021/10/27 02:19:52;;;;;;;11.63;2.45;;;;;;;10.00;100.00;100678.63;6188042;23;20009;-79
2021/10/27 02:22:17;;;;;;;12.15;2.90;;;;;;;10.04;100.00;100671.81;6187112;23;20031;-78
2021/10/27 02:24:43;;;;;;;12.25;3.45;;;;;;;10.02;100.00;100660.44;6187133;23;20336;-78
2021/10/27 02:27:08;;;;;;;17.10;3.80;;;;;;;10.16;100.00;100647.88;6189407;23;20005;-79
2021/10/27 02:29:35;;;;;;;15.10;4.13;;;;;;;10.21;100.00;100664.25;6187899;23;20017;-78
2021/10/27 02:32:01;;;;;;;16.58;3.85;;;;;;;10.28;100.00;100646.31;6194815;23;20009;-79
2021/10/27 02:34:26;;;;;;;15.20;4.13;;;;;;;10.33;100.00;100640.31;6140610;23;20020;-78
2021/10/27 02:36:52;;;;;;;19.38;4.22;;;;;;;10.38;100.00;100642.44;6137016;23;20024;-79
2021/10/27 02:39:17;;;;;;;23.27;5.00;;;;;;;10.41;100.00;100626.72;6138299;23;20017;-78
2021/10/27 02:41:43;;;;;;;24.02;5.25;;;;;;;10.44;100.00;100622.78;6164239;23;20032;-80
2021/10/27 02:44:09;;;;;;;27.75;4.78;;;;;;;10.44;100.00;100618.25;6140866;23;20050;-79
2021/10/27 02:46:34;;;;;;;25.92;5.22;;;;;;;10.47;100.00;100612.44;6162441;23;20016;-78
2021/10/27 02:49:00;;;;;;;16.38;4.80;;;;;;;10.49;100.00;100614.94;6160613;23;20021;-79
2021/10/27 02:51:25;;;;;;;23.75;5.13;;;;;;;10.56;100.00;100599.63;6136632;23;20009;-79
2021/10/27 02:53:50;;;;;;;20.17;4.97;;;;;;;10.47;100.00;100596.31;6161070;23;20008;-78
2021/10/27 02:56:16;;;;;;;16.83;5.22;;;;;;;10.57;100.00;100610.19;6160884;23;20116;-79
2021/10/27 02:58:42;;;;;;;21.17;5.40;;;;;;;10.63;100.00;100599.63;6188736;23;20013;-79
2021/10/27 03:01:08;;;;;;;24.58;6.43;;;;;;;10.42;100.00;100565.66;6186168;23;19997;-79
2021/10/27 03:03:34;;;;;;;22.95;6.32;;;;;;;10.69;100.00;100588.88;6160497;23;20367;-79
2021/10/27 03:05:59;;;;;;;30.73;7.43;;;;;;;10.74;100.00;100599.06;6160765;23;20088;-79
2021/10/27 03:08:25;;;;;;;35.63;8.90;;;;;;;10.78;100.00;100597.59;6160445;23;20075;-78
2021/10/27 03:10:50;;;;;;;36.78;8.80;;;;;;;10.81;100.00;100589.13;6184520;23;20009;-79
2021/10/27 03:13:16;;;;;;;32.13;9.38;;;;;;;10.85;100.00;100576.06;6161343;23;20355;-78
2021/10/27 03:15:41;;;;;;;40.80;9.88;;;;;;;10.85;100.00;100568.81;6189390;23;20008;-78
2021/10/27 03:18:07;;;;;;;43.30;11.20;;;;;;;10.87;100.00;100574.00;6188412;23;20029;-79
2021/10/27 03:20:32;;;;;;;51.97;11.48;;;;;;;10.96;100.00;100580.81;6160618;23;20114;-79
2021/10/27 03:22:58;;;;;;;49.15;11.88;;;;;;;10.89;100.00;100564.66;6136090;23;20023;-79
2021/10/27 03:25:23;;;;;;;46.70;11.95;;;;;;;10.99;100.00;100583.97;6185781;23;20075;-78
2021/10/27 03:27:49;;;;;;;47.60;12.32;;;;;;;11.01;100.00;100570.28;6161196;23;20015;-79
2021/10/27 03:30:14;;;;;;;37.95;10.35;;;;;;;11.08;100.00;100576.47;6135744;23;20031;-78
2021/10/27 03:32:40;;;;;;;50.08;11.38;;;;;;;11.07;100.00;100569.44;6186135;23;20009;-79
2021/10/27 03:35:07;;;;;;;36.30;10.85;;;;;;;11.01;100.00;100559.50;6136143;23;20343;-78
2021/10/27 03:37:32;;;;;;;40.53;10.55;;;;;;;11.09;100.00;100564.66;6160783;23;20016;-78
2021/10/27 03:39:58;;;;;;;46.45;10.38;;;;;;;11.12;100.00;100552.66;6161677;23;20021;-79
2021/10/27 03:42:23;;;;;;;39.72;10.07;;;;;;;11.04;100.00;100543.75;6188886;23;20019;-78
2021/10/27 03:44:50;;;;;;;42.28;10.95;;;;;;;11.04;100.00;100537.56;6160458;23;20304;-79
2021/10/27 03:47:15;;;;;;;47.58;11.35;;;;;;;11.17;100.00;100544.78;6161399;23;20001;-78
2021/10/27 03:49:41;;;;;;;42.15;10.80;;;;;;;11.19;100.00;100554.31;6161634;23;20012;-79
2021/10/27 03:52:09;;;;;;;45.92;11.27;;;;;;;11.16;100.00;100545.81;6166043;23;20019;-79
2021/10/27 03:54:34;;;;;;;49.25;11.27;;;;;;;11.13;100.00;100547.06;6141429;23;20009;-79
2021/10/27 03:57:00;;;;;;;40.85;10.75;;;;;;;11.10;100.00;100538.59;6138636;23;20063;-78
2021/10/27 03:59:25;;;;;;;46.05;10.52;;;;;;;11.18;100.00;100547.25;6161797;23;20075;-78
2021/10/27 04:01:51;;;;;;;41.05;10.10;;;;;;;11.21;100.00;100532.56;6135838;23;20001;-79
2021/10/27 04:04:16;;;;;;;42.10;10.20;;;;;;;11.13;100.00;100527.41;6160996;23;20043;-79
2021/10/27 04:06:42;;;;;;;44.47;10.80;;;;;;;11.21;100.00;100533.38;6185735;23;20374;-79
2021/10/27 04:09:08;;;;;;;56.15;11.65;;;;;;;11.23;100.00;100525.94;6186986;23;20404;-79
2021/10/27 04:11:33;;;;;;;36.47;11.30;;;;;;;11.25;100.00;100526.53;6136351;23;20036;-79
2021/10/27 04:13:59;;;;;;;48.42;12.20;;;;;;;11.24;100.00;100535.66;6135706;23;20013;-79
2021/10/27 04:16:24;;;;;;;56.08;12.73;;;;;;;11.26;100.00;100524.69;6161425;23;20412;-79
2021/10/27 04:18:49;;;;;;;43.70;10.90;;;;;;;11.27;100.00;100532.53;6187070;23;20020;-78
2021/10/27 04:21:15;;;;;;;44.42;10.63;;;;;;;11.25;100.00;100510.38;6186532;23;20001;-79
2021/10/27 04:23:40;;;;;;;48.58;11.18;;;;;;;11.28;100.00;100511.81;6160753;23;20067;-79
2021/10/27 04:26:07;;;;;;;48.15;11.25;;;;;;;11.22;100.00;100502.69;6186662;23;20013;-80
2021/10/27 04:28:33;;;;;;;36.10;10.32;;;;;;;11.27;100.00;100504.78;6162946;23;20000;-79
2021/10/27 04:31:01;;;;;;;38.53;11.82;;;;;;;11.20;100.00;100495.91;6187524;23;20001;-79
2021/10/27 04:33:27;;;;;;;50.17;11.63;;;;;;;11.33;100.00;100508.50;6138002;23;20098;-79
2021/10/27 04:35:52;;;;;;;41.42;10.90;;;;;;;11.34;100.00;100504.78;6162307;23;20416;-79
2021/10/27 04:38:21;;;;;;;37.53;10.63;;;;;;;11.38;100.00;100485.25;6162483;23;20100;-79
2021/10/27 04:40:46;;;;;;;35.45;9.35;;;;;;;11.40;100.00;100498.53;6162023;23;20480;-79
2021/10/27 04:43:12;;;;;;;47.30;9.90;;;;;;;11.38;100.00;100501.44;6136874;23;20013;-78
2021/10/27 04:45:38;;;;;;;46.10;9.65;;;;;;;11.41;100.00;100489.41;6185976;23;20039;-78
2021/10/27 04:48:04;;;;;;;46.33;9.57;;;;;;;11.40;100.00;100493.97;6161750;23;20312;-77
2021/10/27 04:50:30;;;;;;;40.30;8.65;;;;;;;11.43;100.00;100492.72;6194359;23;20012;-79
2021/10/27 04:52:56;;;;;;;44.63;9.27;;;;;;;11.44;100.00;100494.38;6196599;23;20000;-79
2021/10/27 04:55:21;;;;;;;42.22;9.32;;;;;;;11.45;100.00;100496.03;6196956;23;20036;-79
2021/10/27 04:57:47;;;;;;;47.85;9.40;;;;;;;11.46;100.00;100489.63;6165319;23;20016;-79
2021/10/27 05:00:14;;;;;;;39.38;9.40;;;;;;;11.42;100.00;100482.97;6167411;23;20039;-79
2021/10/27 05:02:40;;;;;;;38.35;8.85;;;;;;;11.46;100.00;100478.84;6143176;23;20013;-79
2021/10/27 05:05:08;;;;;;;49.90;8.75;;;;;;;11.50;100.00;100478.19;6115997;23;20016;-79
2021/10/27 05:07:34;;;;;;;38.15;8.95;;;;;;;11.49;100.00;100484.63;6189159;23;20013;-79
2021/10/27 05:10:00;;;;;;;43.53;9.52;;;;;;;11.50;100.00;100456.63;6165458;23;20036;-79
2021/10/27 05:12:26;;;;;;;31.42;8.70;;;;;;;11.46;100.00;100457.28;6165756;23;20465;-79
2021/10/27 05:14:52;;;;;;;46.67;10.18;;;;;;;11.49;100.00;100465.75;6164940;23;20151;-78
2021/10/27 05:17:17;;;;;;;51.70;10.20;;;;;;;11.52;100.00;100468.03;6188155;23;20094;-78
2021/10/27 05:19:44;;;;;;;47.25;9.82;;;;;;;11.45;100.00;100444.81;6162299;23;20058;-79
2021/10/27 05:22:11;;;;;;;38.00;8.95;;;;;;;11.47;100.00;100443.59;6188188;23;20005;-79
2021/10/27 05:24:38;;;;;;;54.00;9.55;;;;;;;11.51;100.00;100452.06;6187766;23;20028;-79
2021/10/27 05:27:04;;;;;;;33.00;9.35;;;;;;;11.59;100.00;100473.41;6137436;23;20008;-79
2021/10/27 05:29:30;;;;;;;49.28;10.50;;;;;;;11.58;100.00;100473.59;6161871;23;20008;-79
2021/10/27 05:31:56;;;;;;;55.10;11.45;;;;;;;11.57;100.00;100467.38;6140683;23;20009;-78
2021/10/27 05:34:21;;;;;;;40.47;9.63;;;;;;;11.60;100.00;100472.34;6162008;23;20016;-79
2021/10/27 05:36:47;;;;;;;41.95;9.70;;;;;;;11.62;100.00;100462.19;6186392;23;20009;-79
2021/10/27 05:39:13;;;;;;;46.88;10.68;;;;;;;11.60;100.00;100466.94;6197496;23;20021;-79
2021/10/27 05:41:44;;;;;;;50.28;10.50;;;;;;;11.62;100.00;100464.88;6125050;23;20069;-79
2021/10/27 05:44:10;;;;;;;59.25;10.25;;;;;;;11.66;100.00;100466.09;6175832;23;20028;-78
2021/10/27 05:46:36;;;;;;;67.30;11.43;;;;;;;11.53;100.00;100455.38;6179462;23;20439;-78
2021/10/27 05:49:07;;;;;;;57.58;11.25;;;;;;;11.64;100.00;100462.78;6177555;23;20070;-79
2021/10/27 05:51:54;;;;;;;49.33;10.75;;;;;;;11.65;100.00;100466.31;6155166;23;20005;-79
2021/10/27 05:57:04;;;;;;;62.15;10.32;;;;;;;11.67;100.00;100453.44;6195806;23;20023;-80
2021/10/27 05:59:30;;;;;;;63.42;10.25;;;;;;;11.50;100.00;100434.25;6196836;23;20028;-80
2021/10/27 06:01:55;;;;;;;57.13;10.30;;;;;;;11.60;100.00;100448.09;6171860;23;20455;-79
2021/10/27 06:04:21;;;;;;;49.60;11.02;;;;;;;11.71;100.00;100466.28;6180068;23;20043;-79
2021/10/27 06:06:46;;;;;;;62.28;11.02;;;;;;;11.65;100.00;100448.25;6181525;23;20007;-80
2021/10/27 06:09:14;;;;;;;60.33;11.43;;;;;;;11.63;100.00;100436.06;6181210;23;20016;-79
2021/10/27 06:11:40;;;;;;;56.88;11.18;;;;;;;11.44;100.00;100400.06;6201244;23;20009;-79
2021/10/27 06:14:05;;;;;;;70.40;11.82;;;;;;;11.68;100.00;100453.22;6186372;23;20009;-78
2021/10/27 06:16:31;;;;;;;62.13;10.77;;;;;;;11.76;100.00;100457.56;6164141;23;20017;-79
2021/10/27 06:18:58;;;;;;;55.53;10.82;;;;;;;11.77;100.00;100446.53;6156457;23;20065;-79
2021/10/27 06:21:23;;;;;;;55.95;11.20;;;;;;;11.79;100.00;100450.88;6182232;23;20326;-78
2021/10/27 06:23:49;;;;;;;64.13;11.23;;;;;;;11.77;100.00;100454.63;6156746;23;20080;-79
2021/10/27 06:26:24;;;;;;;57.13;10.18;;;;;;;11.61;100.00;100425.47;6131899;23;20096;-80
2021/10/27 06:29:01;;;;;;;57.47;11.18;;;;;;;11.81;100.00;100467.69;6156304;23;20020;-79
2021/10/27 06:47:10;;;;;;;63.75;11.45;;;;;;;11.84;100.00;100467.25;6168259;23;20427;-78
2021/10/27 06:49:35;;;;;;;59.15;11.20;;;;;;;11.85;100.00;100472.44;6170281;23;20033;-78
2021/10/27 06:52:01;;;;;;;58.95;12.20;;;;;;;11.86;100.00;100478.69;6172554;23;20005;-78
2021/10/27 06:54:26;;;;;;;46.20;10.27;;;;;;;11.86;100.00;100471.44;6174601;23;20009;-79
2021/10/27 06:56:52;;;;;;;56.63;10.88;;;;;;;11.72;100.00;100449.06;6174697;23;20017;-80
2021/10/27 06:59:54;;;;;;;61.50;11.50;;;;;;;11.86;100.00;100465.22;6149552;23;20013;-79
2021/10/27 07:15:55;;;;;;;64.00;12.02;;;;;;;11.88;100.00;100474.72;6147005;23;20076;-79
2021/10/27 07:18:28;;;;;;;60.85;12.20;;;;;;;11.93;100.00;100485.69;6174435;23;20017;-80
2021/10/27 07:20:53;;;;;;;56.60;11.10;;;;;;;11.94;100.00;100487.34;6148600;23;20144;-80
2021/10/27 07:23:19;;;;;;;49.35;12.02;;;;;;;11.96;100.00;100470.97;6141906;23;20017;-80
2021/10/27 07:25:46;;;;;;;46.10;11.00;;;;;;;11.99;100.00;100479.44;6172955;23;20064;-79
2021/10/27 07:28:12;;;;;;;57.85;11.32;;;;;;;11.95;100.00;100472.84;6178205;23;19998;-79
2021/10/27 07:30:37;;;;;;;48.10;10.88;;;;;;;12.04;100.00;100483.34;6180697;23;20041;-79
2021/10/27 07:33:03;;;;;;;42.08;10.38;;;;;;;12.08;100.00;100489.97;6181041;23;20065;-81
2021/10/27 07:40:43;;;;;;;35.20;9.30;;;;;;;12.08;100.00;100498.88;6180741;23;20031;-82
2021/10/27 07:43:15;;;;;;;48.97;11.35;;;;;;;12.06;100.00;100500.16;6156450;23;20044;-79
2021/10/27 07:45:41;;;;;;;48.58;11.90;;;;;;;12.10;100.00;100509.47;6151871;23;20379;-81
2021/10/27 07:48:08;;;;;;;54.90;12.07;;;;;;;12.10;100.00;100510.28;6178286;23;20006;-80
2021/10/27 07:50:35;;;;;;;60.97;11.43;;;;;;;12.13;100.00;100523.34;6181440;23;20101;-81
2021/10/27 07:53:03;;;;;;;59.58;10.93;;;;;;;12.14;100.00;100505.28;6181230;23;20058;-79
2021/10/27 07:55:29;;;;;;;59.97;11.95;;;;;;;12.17;100.00;100510.25;6181296;23;19989;-79
2021/10/27 07:57:58;;;;;;;59.50;11.38;;;;;;;12.19;100.00;100500.06;6179451;23;20008;-79
2021/10/27 08:00:24;;;;;;;52.92;10.88;;;;;;;12.20;100.00;100520.59;6171667;23;20054;-81
2021/10/27 08:02:50;;;;;;;53.25;10.20;;;;;;;12.23;100.00;100518.28;6187470;23;20028;-81
2021/10/27 08:05:20;;;;;;;57.80;11.18;;;;;;;12.19;100.00;100508.16;6161872;23;20020;-80
2021/10/27 08:07:48;;;;;;;56.03;10.85;;;;;;;12.26;100.00;100518.91;6160820;23;20009;-81
2021/10/27 08:10:18;;;;;;;56.25;10.27;;;;;;;12.20;100.00;100513.31;6165510;23;20002;-81
2021/10/27 08:12:45;;;;;;;61.72;11.48;;;;;;;12.20;100.00;100516.03;6161635;23;20022;-82
2021/10/27 08:15:11;;;;;;;53.33;10.98;;;;;;;12.26;100.00;100513.50;6161080;23;20067;-81
2021/10/27 08:17:38;;;;;;;56.42;10.15;;;;;;;12.27;100.00;100524.06;6163795;23;20005;-81
2021/10/27 08:20:06;;;;;;;53.97;9.85;;;;;;;12.15;100.00;100513.16;6168794;23;20037;-82
2021/10/27 08:22:33;;;;;;;68.03;11.27;;;;;;;12.22;100.00;100530.13;6185739;23;20009;-81
2021/10/27 08:25:02;;;;;;;67.63;11.35;;;;;;;12.13;100.00;100517.13;6164108;23;20286;-82
2021/10/27 08:27:30;;;;;;;79.70;12.65;;;;;;;12.20;100.00;100537.59;6162255;23;20012;-81
2021/10/27 08:30:02;;;;;;;61.00;10.48;;;;;;;11.92;100.00;100494.84;6164364;23;20009;-81
2021/10/27 08:34:54;;;;;;;71.22;11.07;;;;;;;12.20;100.00;100551.09;6165499;23;20001;-82
2021/10/27 08:37:21;;;;;;;63.33;11.02;;;;;;;12.13;100.00;100530.59;6170737;23;20021;-82
2021/10/27 08:39:46;;;;;;;65.85;11.40;;;;;;;12.12;100.00;100543.25;6196302;23;20013;-80
2021/10/27 08:42:12;;;;;;;69.32;11.77;;;;;;;12.19;100.00;100546.75;6169839;23;20009;-82
2021/10/27 08:44:40;;;;;;;76.05;11.20;;;;;;;12.20;100.00;100539.47;6168764;23;20009;-81
2021/10/27 08:47:08;;;;;;;61.78;11.23;;;;;;;12.23;100.00;100552.53;6170511;23;20006;-82
2021/10/27 08:49:34;;;;;;;61.80;10.88;;;;;;;12.21;100.00;100544.66;6146914;23;20005;-82
2021/10/27 08:52:02;;;;;;;57.35;10.23;;;;;;;12.23;100.00;100545.28;6173976;23;20033;-83
2021/10/27 08:54:29;;;;;;;58.33;10.63;;;;;;;12.21;100.00;100551.91;6180396;23;19993;-83
2021/10/27 08:56:57;;;;;;;54.13;10.55;;;;;;;12.23;100.00;100547.97;6175445;23;20010;-81
2021/10/27 08:59:42;;;;;;;56.08;9.80;;;;;;;12.25;100.00;100555.00;6165941;23;20009;-82
2021/10/27 10:06:24;;;;;;;;;;;;;;;12.40;100.00;100602.25;6221771;23;20023;-81
2021/10/27 10:08:50;;;;;;;33.10;5.50;;;;;;;12.43;100.00;100609.09;6196698;23;19910;-81
2021/10/27 10:11:17;;;;;;;31.05;5.07;;;;;;;12.44;100.00;100614.25;6196683;23;20021;-80
2021/10/27 10:13:44;;;;;;;29.15;5.47;;;;;;;12.44;100.00;100608.03;6195656;23;20029;-81
2021/10/27 10:16:10;;;;;;;31.65;5.55;;;;;;;12.42;100.00;100602.88;6198375;23;20011;-82
2021/10/27 10:18:37;;;;;;;33.30;5.85;;;;;;;12.40;100.00;100598.72;6203179;23;20009;-82
2021/10/27 10:21:05;;;;;;;30.08;5.68;;;;;;;12.48;100.00;100603.03;6200661;23;20020;-81
2021/10/27 10:23:30;;;;;;;28.95;4.82;;;;;;;12.50;100.00;100592.84;6201549;23;20001;-81
2021/10/27 10:26:06;;;;;;;29.40;5.53;;;;;;;12.38;100.00;100595.41;6174234;23;20028;-82
2021/10/27 10:28:42;;;;;;;24.42;4.93;;;;;;;12.46;100.00;100603.25;6208673;23;20000;-82
2021/10/27 10:31:08;;;;;;;30.20;5.32;;;;;;;12.50;100.00;100617.16;6202836;23;19997;-82
2021/10/27 10:33:41;;;;;;;28.20;5.25;;;;;;;12.46;100.00;100614.06;6200628;23;20001;-82
2021/10/27 10:36:10;;;;;;;35.05;5.75;;;;;;;12.53;100.00;100614.03;6195700;23;20005;-81
2021/10/27 10:59:09;;;;;;;35.25;6.40;;;;;;;12.54;100.00;100651.56;6198985;23;20040;-83
2021/10/27 11:38:15;;;;;;;41.35;6.72;;;;;;;12.43;100.00;100642.28;6127423;23;20010;-80
2021/10/27 11:40:46;;;;;;;33.67;6.07;;;;;;;12.48;100.00;100647.03;6181085;23;20001;-80
2021/10/27 11:45:54;;;;;;;32.17;5.40;;;;;;;12.50;100.00;100649.53;6225758;23;20087;-80
2021/10/27 11:51:10;;;;;;;35.80;5.38;;;;;;;12.50;100.00;100668.44;6236192;23;20011;-80
2021/10/27 11:53:36;;;;;;;39.20;6.13;;;;;;;12.52;100.00;100682.53;6231878;23;20296;-80
2021/10/27 11:56:17;;;;;;;38.47;6.15;;;;;;;12.49;100.00;100678.41;6236811;22;20000;-81
2021/10/27 11:58:45;;;;;;;39.70;6.40;;;;;;;12.50;100.00;100687.31;6212684;23;20005;-81
2021/10/27 12:01:33;;;;;;;33.17;5.90;;;;;;;12.41;100.00;100671.34;6237326;23;19992;-81
2021/10/27 12:04:10;;;;;;;34.38;6.25;;;;;;;12.44;100.00;100673.63;6182854;23;20008;-80
2021/10/27 12:12:29;;;;;;;41.50;6.88;;;;;;;12.52;100.00;100691.47;6227226;23;20032;-78
2021/10/27 12:15:37;;;;;;;42.10;6.95;;;;;;;12.51;100.00;100697.06;6189643;23;20356;-81
2021/10/27 12:18:11;;;;;;;49.35;7.32;;;;;;;12.50;100.00;100690.84;6236907;23;20035;-82
2021/10/27 12:20:43;;;;;;;41.88;7.32;;;;;;;12.52;100.00;100701.44;6211726;23;20074;-80
2021/10/27 12:23:20;;;;;;;49.83;7.30;;;;;;;12.48;100.00;100684.81;6241066;23;19988;-79
2021/10/27 12:25:47;;;;;;;35.47;5.88;;;;;;;12.55;100.00;100700.97;6212406;23;20008;-80
2021/10/27 12:28:34;;;;;;;41.70;6.72;;;;;;;12.56;100.00;100706.19;6217154;23;20011;-82
2021/10/27 12:31:19;;;;;;;40.35;6.95;;;;;;;12.54;100.00;100704.72;6216313;23;19989;-81
2021/10/27 12:33:46;;;;;;;40.30;7.07;;;;;;;12.55;100.00;100704.53;6218402;23;19995;-82
2021/10/27 12:36:36;;;;;;;45.10;6.85;;;;;;;12.54;100.00;100700.16;6242371;23;20008;-81
2021/10/27 12:41:49;;;;;;;42.58;7.82;;;;;;;12.59;100.00;100715.72;6251169;23;20051;-80
2021/10/27 12:44:20;;;;;;;43.65;7.80;;;;;;;12.57;100.00;100718.63;6212331;23;20024;-81
2021/10/27 12:46:46;;;;;;;47.72;8.10;;;;;;;12.59;100.00;100716.56;6189933;23;20040;-82
2021/10/27 12:49:21;;;;;;;35.13;7.10;;;;;;;12.61;100.00;100713.63;6219585;22;19999;-81
2021/10/27 12:51:48;;;;;;;44.85;8.15;;;;;;;12.43;100.00;100696.25;6188514;23;19997;-81
2021/10/27 12:54:14;;;;;;;41.85;7.60;;;;;;;12.61;100.00;100717.16;6220872;23;20008;-81
2021/10/27 12:56:39;;;;;;;39.38;7.55;;;;;;;12.56;100.00;100719.69;6193670;23;20056;-82
2021/10/27 12:59:08;;;;;;;47.28;8.00;;;;;;;12.59;100.00;100734.63;6186048;23;20043;-81
2021/10/27 13:01:43;;;;;;;47.85;7.43;;;;;;;12.61;100.00;100729.81;6241830;23;20015;-82
2021/10/27 13:07:31;;;;;;;38.60;6.53;;;;;;;12.55;100.00;100728.81;6243399;22;20023;-82
2021/10/27 13:30:52;;;;;;;46.63;6.77;;;;;;;12.21;100.00;100676.81;6236237;23;19996;-80
2021/10/27 13:33:20;;;;;;;46.28;7.53;;;;;;;11.86;100.00;100614.31;6211289;23;20012;-81
2021/10/27 13:35:46;;;;;;;43.38;6.97;;;;;;;11.96;100.00;100638.97;6238417;23;20004;-82
2021/10/27 13:38:13;;;;;;;34.25;6.30;;;;;;;12.69;100.00;100745.78;6234550;23;19984;-81
2021/10/27 13:40:44;;;;;;;37.85;6.05;;;;;;;12.12;100.00;100658.38;6203240;23;20075;-80
2021/10/27 13:46:22;;;;;;;32.22;6.38;;;;;;;12.03;100.00;100655.13;6237696;23;20508;-80
2021/10/27 14:07:33;;;;;;;24.83;5.22;;;;;;;12.58;100.00;100758.09;6227282;23;20075;-81
2021/10/27 14:10:41;;;;;;;27.98;4.95;;;;;;;12.58;100.00;100765.34;6232647;23;20019;-81
2021/10/27 14:12:54;;;;;;;37.15;6.80;;;;;;;12.56;100.00;100767.44;6217468;23;20059;-81
2021/10/27 15:20:45;;;;;;;51.05;7.32;;;;;;;12.35;100.00;100815.25;6248492;23;20101;-79
2021/10/27 15:23:39;;;;;;;47.95;6.70;;;;;;;12.14;100.00;100775.81;6222273;23;20000;-78
2021/10/27 15:29:05;;;;;;;51.20;8.48;;;;;;;12.42;100.00;100828.72;6224540;23;20023;-79
2021/10/27 15:31:40;;;;;;;52.80;8.20;;;;;;;12.34;100.00;100820.84;6200545;23;20012;-78
2021/10/27 15:45:39;;;;;;;56.47;8.18;;;;;;;12.36;100.00;100838.47;6247320;23;20015;-79
2021/10/27 15:50:40;;;;;;;65.93;8.00;;;;;;;12.27;100.00;100823.53;6248687;23;20018;-79
2021/10/27 15:53:07;;;;;;;52.55;7.82;;;;;;;12.17;100.00;100806.97;6208593;23;20000;-79
2021/10/27 15:55:33;;;;;;;56.75;8.48;;;;;;;12.27;100.00;100836.22;6249201;23;20034;-80
2021/10/27 15:57:58;;;;;;;48.45;8.30;;;;;;;12.38;100.00;100858.00;6249213;23;20004;-80
2021/10/27 16:00:24;;;;;;;51.55;8.18;;;;;;;12.36;100.00;100851.97;6221233;23;20031;-79
2021/10/27 16:02:50;;;;;;;56.70;7.40;;;;;;;12.35;100.00;100854.88;6195923;23;20000;-80
2021/10/27 16:05:16;;;;;;;54.22;7.95;;;;;;;12.34;100.00;100862.13;6221807;23;20387;-80
2021/10/27 16:07:43;;;;;;;48.38;7.55;;;;;;;12.18;100.00;100831.00;6197267;23;20075;-79
2021/10/27 16:10:15;;;;;;;49.63;7.38;;;;;;;12.35;100.00;100857.56;6247939;23;20403;-80
2021/10/27 16:12:40;;;;;;;56.08;8.00;;;;;;;12.37;100.00;100866.28;6228559;23;20034;-80